createdAt,value
2023-04-15T00:02:27.106Z,0.75
2023-04-15T00:05:12.356Z,0.94
2023-04-15T00:07:57.677Z,0.86
2023-04-15T00:10:43.191Z,0.91
2023-04-15T00:13:28.549Z,0.75
2023-04-15T00:16:13.623Z,0.70
2023-04-15T00:18:59.344Z,0.78
2023-04-15T00:21:44.835Z,0.76
2023-04-15T00:24:29.918Z,0.80
2023-04-15T00:27:15.144Z,0.86
2023-04-15T00:30:00.724Z,0.76
2023-04-15T00:32:46.154Z,0.79
2023-04-15T00:35:31.640Z,0.76
2023-04-15T00:38:17.010Z,0.79
2023-04-15T00:41:01.770Z,0.79
2023-04-15T00:43:47.326Z,0.67
2023-04-15T00:46:32.773Z,0.83
2023-04-15T00:49:17.713Z,0.73
2023-04-15T00:52:03.295Z,0.93
2023-04-15T00:54:48.601Z,0.82
2023-04-15T00:57:33.903Z,0.63
2023-04-15T01:00:19.168Z,0.69
2023-04-15T01:03:04.523Z,0.86
2023-04-15T01:05:49.833Z,0.82
2023-04-15T01:08:35.206Z,0.71
2023-04-15T01:11:20.301Z,0.71
2023-04-15T01:14:05.691Z,0.77
2023-04-15T01:16:51.053Z,0.81
2023-04-15T01:19:36.506Z,0.78
2023-04-15T01:22:21.747Z,0.75
2023-04-15T01:25:07.085Z,0.73
2023-04-15T01:27:52.364Z,0.71
2023-04-15T01:30:37.790Z,0.76
2023-04-15T01:33:22.681Z,0.79
2023-04-15T01:36:07.990Z,0.78
2023-04-15T01:38:53.184Z,0.69
2023-04-15T01:41:38.610Z,0.81
2023-04-15T01:44:23.924Z,0.80
2023-04-15T01:47:09.716Z,0.71
2023-04-15T01:49:54.676Z,0.75
2023-04-15T01:52:39.782Z,0.84
2023-04-15T01:55:24.752Z,0.70
2023-04-15T01:58:10.216Z,0.77
2023-04-15T02:00:55.429Z,0.77
2023-04-15T02:03:40.898Z,0.71
2023-04-15T02:06:26.165Z,0.76
2023-04-15T02:09:11.672Z,0.78
2023-04-15T02:11:56.642Z,0.65
2023-04-15T02:14:41.961Z,0.84
2023-04-15T02:17:27.502Z,0.67
2023-04-15T02:20:12.917Z,0.79
2023-04-15T02:22:58.400Z,0.69
2023-04-15T02:25:43.486Z,0.82
2023-04-15T02:28:39.125Z,0.69
2023-04-15T02:31:24.511Z,0.78
2023-04-15T02:34:09.705Z,0.78
2023-04-15T02:36:55.206Z,0.71
2023-04-15T02:39:40.724Z,0.72
2023-04-15T02:42:26.220Z,0.80
2023-04-15T02:45:11.268Z,0.63
2023-04-15T02:47:56.799Z,0.67
2023-04-15T02:50:42.221Z,0.81
2023-04-15T02:53:27.705Z,0.64
2023-04-15T02:56:13.175Z,0.73
2023-04-15T02:58:58.742Z,0.71
2023-04-15T03:01:43.887Z,0.74
2023-04-15T03:04:29.043Z,0.69
2023-04-15T03:07:14.520Z,0.69
2023-04-15T03:09:59.647Z,0.73
2023-04-15T03:12:45.045Z,0.69
2023-04-15T03:15:30.565Z,0.82
2023-04-15T03:18:15.868Z,0.61
2023-04-15T03:21:01.437Z,0.72
2023-04-15T03:23:49.191Z,0.66
2023-04-15T03:26:34.175Z,0.74
2023-04-15T03:29:19.103Z,0.73
2023-04-15T03:32:04.305Z,0.76
2023-04-15T03:34:49.905Z,0.64
2023-04-15T03:37:35.251Z,0.65
2023-04-15T03:40:20.498Z,0.69
2023-04-15T03:43:05.464Z,0.74
2023-04-15T03:45:50.716Z,0.77
2023-04-15T03:48:35.586Z,0.70
2023-04-15T03:51:20.611Z,0.67
2023-04-15T03:54:05.906Z,0.59
2023-04-15T03:56:51.257Z,0.77
2023-04-15T03:59:36.701Z,0.75
2023-04-15T04:02:22.267Z,0.74
2023-04-15T04:05:07.433Z,0.76
2023-04-15T04:07:52.278Z,0.67
2023-04-15T04:10:37.452Z,0.65
2023-04-15T04:13:22.662Z,0.76
2023-04-15T04:16:07.929Z,0.67
2023-04-15T04:18:53.214Z,0.64
2023-04-15T04:21:38.282Z,0.69
2023-04-15T04:24:23.570Z,0.74
2023-04-15T04:27:09.005Z,0.63
2023-04-15T04:29:54.190Z,0.76
2023-04-15T04:32:39.574Z,0.72
2023-04-15T04:35:24.813Z,0.68
2023-04-15T04:38:10.128Z,0.66
2023-04-15T04:40:55.623Z,0.67
2023-04-15T04:43:40.685Z,0.63
2023-04-15T04:46:26.245Z,0.64
2023-04-15T04:49:11.537Z,0.64
2023-04-15T04:51:56.924Z,0.55
2023-04-15T04:54:42.394Z,0.72
2023-04-15T04:57:27.641Z,0.68
2023-04-15T05:00:12.563Z,0.66
2023-04-15T05:02:57.965Z,0.65
2023-04-15T05:05:44.291Z,0.70
2023-04-15T05:08:29.520Z,0.64
2023-04-15T05:11:14.849Z,0.67
2023-04-15T05:14:00.308Z,0.64
2023-04-15T05:16:45.636Z,0.70
2023-04-15T05:19:31.058Z,0.62
2023-04-15T05:22:16.241Z,0.64
2023-04-15T05:25:01.721Z,0.62
2023-04-15T05:27:47.234Z,0.51
2023-04-15T05:30:32.610Z,0.60
2023-04-15T05:33:17.857Z,0.71
2023-04-15T05:36:03.093Z,0.62
2023-04-15T05:38:48.168Z,0.66
2023-04-15T05:41:33.436Z,0.60
2023-04-15T05:44:18.641Z,0.68
2023-04-15T05:47:03.958Z,0.65
2023-04-15T05:49:49.477Z,0.63
2023-04-15T05:52:34.828Z,0.68
2023-04-15T05:55:20.311Z,0.63
2023-04-15T05:58:05.757Z,0.56
2023-04-15T06:00:51.196Z,0.58
2023-04-15T06:03:36.674Z,0.55
2023-04-15T06:06:22.025Z,0.72
2023-04-15T06:09:07.290Z,0.62
2023-04-15T06:11:52.568Z,0.69
2023-04-15T06:14:38.119Z,0.65
2023-04-15T06:17:23.426Z,0.61
2023-04-15T06:20:08.751Z,0.68
2023-04-15T06:22:54.140Z,0.64
2023-04-15T06:25:39.437Z,0.75
2023-04-15T06:28:24.784Z,0.64
2023-04-15T06:31:09.967Z,0.68
2023-04-15T06:33:55.303Z,0.66
2023-04-15T06:36:40.488Z,0.61
2023-04-15T06:39:25.976Z,0.59
2023-04-15T06:42:11.159Z,0.62
2023-04-15T06:44:56.134Z,0.78
2023-04-15T06:47:41.462Z,0.56
2023-04-15T06:50:27.053Z,0.65
2023-04-15T06:53:12.498Z,0.57
2023-04-15T06:55:57.828Z,0.64
2023-04-15T06:58:43.216Z,0.60
2023-04-15T07:01:28.591Z,0.68
2023-04-15T07:04:13.996Z,0.62
2023-04-15T07:06:59.044Z,0.62
2023-04-15T07:09:44.520Z,0.75
2023-04-15T07:12:29.976Z,0.67
2023-04-15T07:15:15.233Z,0.72
2023-04-15T07:18:00.887Z,0.63
2023-04-15T07:20:46.035Z,0.58
2023-04-15T07:23:31.404Z,0.54
2023-04-15T07:26:16.916Z,0.72
2023-04-15T07:29:02.506Z,0.54
2023-04-15T07:31:47.671Z,0.59
2023-04-15T07:34:33.095Z,0.61
2023-04-15T07:37:18.545Z,0.60
2023-04-15T07:40:04.028Z,0.63
2023-04-15T07:42:49.337Z,0.68
2023-04-15T07:45:34.686Z,0.72
2023-04-15T07:48:19.983Z,0.66
2023-04-15T07:51:05.225Z,0.70
2023-04-15T07:53:50.544Z,0.74
2023-04-15T07:56:36.012Z,0.61
2023-04-15T07:59:21.546Z,0.55
2023-04-15T08:02:07.061Z,0.62
2023-04-15T08:04:52.322Z,0.65
2023-04-15T08:07:37.580Z,0.68
2023-04-15T08:10:23.003Z,0.70
2023-04-15T08:13:08.358Z,0.70
2023-04-15T08:15:53.600Z,0.71
2023-04-15T08:18:39.076Z,0.58
2023-04-15T08:21:24.391Z,0.74
2023-04-15T08:24:09.560Z,0.74
2023-04-15T08:26:54.919Z,0.65
2023-04-15T08:29:40.094Z,0.74
2023-04-15T08:32:25.908Z,0.68
2023-04-15T08:35:10.960Z,0.82
2023-04-15T08:37:56.289Z,0.64
2023-04-15T08:40:41.559Z,0.62
2023-04-15T08:43:26.758Z,0.71
2023-04-15T08:46:12.108Z,0.64
2023-04-15T08:48:57.388Z,0.62
2023-04-15T08:51:42.850Z,0.69
2023-04-15T08:54:28.128Z,0.60
2023-04-15T08:57:13.537Z,0.79
2023-04-15T08:59:58.751Z,0.63
2023-04-15T09:02:44.286Z,0.60
2023-04-15T09:05:29.372Z,0.62
2023-04-15T09:08:14.455Z,0.57
2023-04-15T09:11:00.010Z,0.59
2023-04-15T09:13:45.281Z,0.64
2023-04-15T09:16:30.586Z,0.59
2023-04-15T09:19:15.935Z,0.70
2023-04-15T09:22:01.246Z,0.62
2023-04-15T09:24:46.596Z,0.63
2023-04-15T09:27:31.874Z,0.88
2023-04-15T09:30:17.362Z,0.70
2023-04-15T09:33:02.675Z,0.62
2023-04-15T09:35:47.991Z,0.60
2023-04-15T09:38:33.555Z,0.65
2023-04-15T09:41:18.781Z,0.65
2023-04-15T09:44:04.036Z,0.63
2023-04-15T09:46:49.232Z,0.60
2023-04-15T09:49:34.691Z,0.60
2023-04-15T09:52:19.954Z,0.70
2023-04-15T09:55:05.328Z,0.67
2023-04-15T09:57:50.562Z,0.67
2023-04-15T10:00:35.912Z,0.68
2023-04-15T10:03:21.412Z,0.76
2023-04-15T10:06:06.583Z,0.72
2023-04-15T10:08:51.972Z,0.63
2023-04-15T10:11:37.226Z,0.69
2023-04-15T10:14:22.512Z,0.58
2023-04-15T10:17:08.004Z,0.71
2023-04-15T10:19:53.405Z,0.69
2023-04-15T10:22:38.755Z,0.71
2023-04-15T10:25:24.060Z,0.74
2023-04-15T10:28:09.532Z,0.60
2023-04-15T10:30:55.019Z,0.64
2023-04-15T10:33:40.234Z,0.74
2023-04-15T10:36:25.602Z,0.60
2023-04-15T10:39:10.843Z,0.63
2023-04-15T10:41:56.295Z,0.58
2023-04-15T10:44:41.683Z,0.60
2023-04-15T10:47:27.003Z,0.66
2023-04-15T10:50:12.355Z,0.65
2023-04-15T10:52:57.654Z,0.59
2023-04-15T10:55:43.159Z,0.56
2023-04-15T10:58:28.551Z,0.60
2023-04-15T11:01:13.814Z,0.72
2023-04-15T11:03:59.403Z,0.71
2023-04-15T11:06:44.549Z,0.70
2023-04-15T11:09:29.937Z,0.62
2023-04-15T11:12:15.334Z,0.72
2023-04-15T11:15:00.401Z,0.71
2023-04-15T11:17:46.619Z,0.64
2023-04-15T11:20:31.832Z,0.80
2023-04-15T11:23:18.089Z,0.72
2023-04-15T11:26:03.251Z,0.67
2023-04-15T11:28:48.766Z,0.65
2023-04-15T11:31:34.463Z,0.69
2023-04-15T11:34:19.693Z,0.90
2023-04-15T11:37:05.250Z,0.69
2023-04-15T11:39:51.066Z,0.74
2023-04-15T11:42:48.519Z,0.74
2023-04-15T11:45:34.628Z,0.70
2023-04-15T11:48:19.889Z,0.74
2023-04-15T11:51:05.696Z,0.82
2023-04-15T11:53:51.193Z,0.70
2023-04-15T11:56:36.789Z,0.68
2023-04-15T11:59:22.310Z,0.74
2023-04-15T12:02:08.347Z,0.76
2023-04-15T12:04:53.884Z,0.73
2023-04-15T12:07:39.407Z,0.64
2023-04-15T12:10:24.848Z,0.75
2023-04-15T12:13:10.557Z,0.65
2023-04-15T12:15:56.308Z,0.70
2023-04-15T12:18:42.023Z,0.81
2023-04-15T12:21:27.551Z,0.70
2023-04-15T12:24:12.774Z,0.67
2023-04-15T12:26:58.109Z,0.75
2023-04-15T12:29:43.536Z,0.70
2023-04-15T12:32:29.090Z,0.80
2023-04-15T12:35:14.461Z,0.70
2023-04-15T12:37:59.839Z,0.74
2023-04-15T12:40:46.096Z,0.72
2023-04-15T12:43:32.257Z,0.61
2023-04-15T12:46:18.135Z,0.76
2023-04-15T12:49:03.570Z,0.69
2023-04-15T12:51:49.449Z,0.66
2023-04-15T12:54:35.165Z,0.74
2023-04-15T12:57:20.622Z,0.73
2023-04-15T13:00:06.706Z,0.65
2023-04-15T13:02:52.245Z,0.72
2023-04-15T13:05:37.262Z,0.74
2023-04-15T13:08:22.666Z,0.80
2023-04-15T13:11:08.504Z,0.72
2023-04-15T13:13:53.377Z,0.78
2023-04-15T13:16:38.789Z,0.69
2023-04-15T13:19:24.518Z,0.75
2023-04-15T13:22:09.627Z,0.72
2023-04-15T13:24:55.186Z,0.67
2023-04-15T13:27:40.645Z,0.76
2023-04-15T13:30:25.965Z,0.67
2023-04-15T13:33:11.553Z,0.68
2023-04-15T13:35:57.259Z,0.66
2023-04-15T13:38:42.833Z,0.69
2023-04-15T13:41:28.344Z,0.65
2023-04-15T13:44:13.940Z,0.73
2023-04-15T13:46:59.326Z,0.67
2023-04-15T13:49:44.685Z,0.71
2023-04-15T13:52:30.338Z,0.76
2023-04-15T13:55:19.939Z,0.70
2023-04-15T13:58:06.661Z,0.65
2023-04-15T14:00:51.963Z,0.63
2023-04-15T14:03:38.470Z,0.69
2023-04-15T14:06:24.641Z,0.70
2023-04-15T14:09:10.468Z,0.77
2023-04-15T14:11:55.703Z,0.78
2023-04-15T14:14:41.547Z,0.69
2023-04-15T14:17:27.174Z,0.70
2023-04-15T14:20:13.239Z,0.80
2023-04-15T14:23:00.319Z,0.59
2023-04-15T14:25:47.917Z,0.72
2023-04-15T14:28:33.965Z,0.76
2023-04-15T14:31:19.377Z,0.61
2023-04-15T14:34:05.325Z,0.78
2023-04-15T14:36:51.048Z,0.64
2023-04-15T14:39:36.397Z,0.70
2023-04-15T14:42:21.772Z,0.60
2023-04-15T14:45:07.311Z,0.67
2023-04-15T14:47:52.685Z,0.81
2023-04-15T14:50:38.034Z,0.72
2023-04-15T14:53:23.450Z,0.67
2023-04-15T14:56:09.096Z,0.78
2023-04-15T14:58:54.471Z,0.65
2023-04-15T15:01:39.733Z,0.72
2023-04-15T15:04:25.290Z,0.70
2023-04-15T15:07:10.664Z,0.75
2023-04-15T15:09:56.071Z,0.72
2023-04-15T15:12:41.377Z,0.76
2023-04-15T15:15:29.075Z,0.77
2023-04-15T15:18:14.645Z,0.77
2023-04-15T15:21:00.058Z,0.82
2023-04-15T15:23:45.517Z,0.75
2023-04-15T15:26:31.378Z,0.73
2023-04-15T15:29:16.841Z,0.75
2023-04-15T15:32:02.144Z,0.82
2023-04-15T15:34:47.786Z,0.80
2023-04-15T15:37:32.712Z,0.78
2023-04-15T15:40:19.635Z,0.72
2023-04-15T15:43:05.155Z,0.85
2023-04-15T15:45:50.429Z,0.77
2023-04-15T15:48:35.668Z,0.84
2023-04-15T15:51:21.116Z,0.81
2023-04-15T15:54:06.543Z,0.68
2023-04-15T15:56:52.012Z,0.76
2023-04-15T15:59:37.504Z,0.86
2023-04-15T16:02:40.064Z,0.69
2023-04-15T16:05:28.313Z,0.82
2023-04-15T16:08:13.927Z,0.74
2023-04-15T16:10:59.013Z,0.76
2023-04-15T16:13:44.585Z,0.80
2023-04-15T16:16:30.201Z,0.76
2023-04-15T16:19:16.532Z,0.83
2023-04-15T16:22:02.179Z,0.80
2023-04-15T16:24:47.478Z,0.67
2023-04-15T16:27:33.812Z,0.71
2023-04-15T16:30:22.078Z,0.73
2023-04-15T16:33:09.375Z,0.72
2023-04-15T16:35:54.613Z,0.74
2023-04-15T16:38:40.151Z,0.70
2023-04-15T16:41:25.463Z,0.85
2023-04-15T16:44:10.719Z,0.82
2023-04-15T16:46:56.147Z,0.79
2023-04-15T16:49:41.462Z,0.77
2023-04-15T16:52:26.874Z,0.64
2023-04-15T16:55:12.167Z,0.75
2023-04-15T16:58:01.642Z,0.72
2023-04-15T17:00:47.969Z,0.83
2023-04-15T17:03:34.019Z,0.76
2023-04-15T17:06:19.584Z,0.79
2023-04-15T17:09:05.583Z,0.76
2023-04-15T17:11:51.046Z,0.82
2023-04-15T17:14:36.623Z,0.86
2023-04-15T17:17:22.081Z,1.00
2023-04-15T17:20:07.176Z,1.03
2023-04-15T17:22:53.200Z,1.33
2023-04-15T17:25:38.414Z,1.06
2023-04-15T17:28:23.797Z,1.18
2023-04-15T17:31:09.162Z,1.12
2023-04-15T17:34:01.772Z,1.13
2023-04-15T17:36:55.626Z,1.21
2023-04-15T17:39:40.689Z,1.09
2023-04-15T17:42:26.025Z,1.08
2023-04-15T17:45:11.447Z,1.06
2023-04-15T17:47:56.875Z,1.12
2023-04-15T17:50:43.578Z,1.05
2023-04-15T17:53:28.661Z,0.94
2023-04-15T17:56:14.088Z,1.09
2023-04-15T17:58:59.361Z,0.96
2023-04-15T18:01:44.973Z,0.97
2023-04-15T18:04:32.357Z,1.00
2023-04-15T18:07:18.167Z,1.11
2023-04-15T18:10:04.297Z,1.08
2023-04-15T18:12:49.778Z,1.05
2023-04-15T18:15:35.388Z,0.96
2023-04-15T18:18:21.031Z,1.09
2023-04-15T18:21:07.131Z,1.18
2023-04-15T18:23:53.918Z,1.08
2023-04-15T18:26:39.043Z,1.12
2023-04-15T18:29:24.331Z,0.89
2023-04-15T18:32:09.759Z,1.09
2023-04-15T18:34:55.065Z,1.03
2023-04-15T18:37:40.374Z,1.04
2023-04-15T18:40:25.981Z,0.90
2023-04-15T18:43:11.607Z,1.09
2023-04-15T18:45:57.416Z,1.08
2023-04-15T18:48:42.483Z,0.96
2023-04-15T18:51:27.877Z,0.86
2023-04-15T18:54:12.993Z,0.88
2023-04-15T18:56:58.274Z,1.06
2023-04-15T18:59:43.812Z,0.97
2023-04-15T19:02:29.314Z,0.98
2023-04-15T19:05:15.009Z,0.93
2023-04-15T19:08:00.131Z,0.89
2023-04-15T19:10:45.284Z,0.99
2023-04-15T19:13:30.793Z,0.98
2023-04-15T19:16:16.132Z,0.99
2023-04-15T19:19:01.599Z,0.83
2023-04-15T19:21:46.564Z,1.10
2023-04-15T19:24:33.168Z,0.97
2023-04-15T19:27:18.335Z,1.05
2023-04-15T19:30:03.621Z,1.04
2023-04-15T19:32:49.451Z,0.98
2023-04-15T19:35:34.652Z,2.27
2023-04-15T19:38:21.636Z,9.64
2023-04-15T19:41:08.165Z,25.98
2023-04-15T19:43:56.314Z,32.71
2023-04-15T19:46:41.905Z,37.16
2023-04-15T19:49:27.298Z,32.48
2023-04-15T19:52:12.768Z,33.93
2023-04-15T19:54:58.153Z,36.93
2023-04-15T19:57:43.492Z,36.47
2023-04-15T20:00:28.733Z,38.09
2023-04-15T20:03:13.935Z,35.44
2023-04-15T20:05:59.232Z,35.09
2023-04-15T20:08:44.672Z,35.62
2023-04-15T20:12:47.477Z,38.12
2023-04-15T20:14:34.949Z,43.50
2023-04-15T20:17:20.169Z,51.99
2023-04-15T20:20:05.268Z,54.38
2023-04-15T20:22:50.513Z,58.24
2023-04-15T20:25:35.987Z,57.99
2023-04-15T20:28:21.256Z,57.36
2023-04-15T20:31:06.633Z,57.82
2023-04-15T20:33:51.624Z,58.69
2023-04-15T20:36:36.699Z,57.55
2023-04-15T20:39:22.029Z,57.91
2023-04-15T20:42:07.101Z,56.87
2023-04-15T20:44:52.594Z,57.57
2023-04-15T20:47:37.954Z,56.34
2023-04-15T20:50:23.388Z,55.91
2023-04-15T20:53:08.569Z,54.74
2023-04-15T20:55:53.841Z,53.72
2023-04-15T20:58:39.057Z,53.63
2023-04-15T21:01:24.394Z,53.04
2023-04-15T21:04:09.654Z,53.31
2023-04-15T21:06:54.811Z,53.09
2023-04-15T21:09:39.867Z,52.17
2023-04-15T21:12:25.178Z,50.51
2023-04-15T21:15:10.701Z,50.95
2023-04-15T21:17:55.966Z,52.63
2023-04-15T21:20:41.450Z,51.12
2023-04-15T21:23:26.877Z,50.78
2023-04-15T21:26:12.142Z,50.23
2023-04-15T21:28:57.605Z,50.34
2023-04-15T21:31:43.084Z,49.87
2023-04-15T21:34:31.375Z,49.19
2023-04-15T21:37:16.632Z,49.96
2023-04-15T21:40:01.949Z,49.19
2023-04-15T21:42:47.050Z,48.48
2023-04-15T21:45:32.309Z,48.50
2023-04-15T21:48:17.620Z,47.92
2023-04-15T21:51:03.018Z,48.08
2023-04-15T21:53:48.138Z,47.53
2023-04-15T21:56:33.331Z,47.87
2023-04-15T21:59:18.750Z,47.77
2023-04-15T22:02:04.035Z,46.10
2023-04-15T22:04:49.154Z,46.68
2023-04-15T22:07:34.267Z,46.77
2023-04-15T22:10:19.875Z,46.87
2023-04-15T22:13:05.095Z,45.72
2023-04-15T22:15:50.454Z,46.89
2023-04-15T22:18:35.870Z,45.47
2023-04-15T22:21:21.279Z,44.43
2023-04-15T22:24:38.155Z,44.90
2023-04-15T22:27:11.551Z,44.72
2023-04-15T22:29:56.771Z,44.30
2023-04-15T22:32:42.129Z,43.65
2023-04-15T22:35:27.439Z,44.66
2023-04-15T22:38:12.464Z,45.33
2023-04-15T22:40:57.780Z,44.08
2023-04-15T22:43:43.207Z,43.62
2023-04-15T22:46:28.577Z,42.73
2023-04-15T22:49:13.968Z,42.66
2023-04-15T22:51:59.429Z,42.42
2023-04-15T22:54:44.693Z,42.58
2023-04-15T22:57:30.097Z,42.39
2023-04-15T23:00:15.452Z,41.43
2023-04-15T23:03:01.258Z,41.48
2023-04-15T23:05:46.400Z,41.15
2023-04-15T23:08:31.760Z,42.59
2023-04-15T23:11:17.366Z,41.38
2023-04-15T23:14:03.878Z,41.90
2023-04-15T23:16:48.952Z,40.98
2023-04-15T23:19:34.369Z,40.55
2023-04-15T23:22:19.675Z,41.03
2023-04-15T23:25:05.007Z,41.08
2023-04-15T23:27:50.234Z,41.20
2023-04-15T23:30:35.845Z,40.65
2023-04-15T23:33:21.248Z,39.95
2023-04-15T23:36:06.504Z,39.32
2023-04-15T23:38:51.928Z,38.83
2023-04-15T23:41:37.433Z,38.53
2023-04-15T23:44:22.931Z,39.65
2023-04-15T23:47:08.404Z,38.74
2023-04-15T23:49:53.669Z,38.63
2023-04-15T23:52:39.111Z,38.51
2023-04-15T23:55:24.199Z,37.75
2023-04-15T23:58:09.605Z,37.78
